createdAt,value
2022-11-17T00:01:10.867Z,98088.56
2022-11-17T00:03:40.325Z,98073.13
2022-11-17T00:06:09.790Z,98076.41
2022-11-17T00:08:38.429Z,98062.91
2022-11-17T00:11:07.959Z,98068.13
2022-11-17T00:13:56.032Z,98073.00
2022-11-17T00:16:25.559Z,98080.19
2022-11-17T00:19:13.572Z,98081.03
2022-11-17T00:21:43.109Z,98090.75
2022-11-17T00:24:17.274Z,98097.81
2022-11-17T00:27:01.826Z,98102.56
2022-11-17T00:29:32.136Z,98101.31
2022-11-17T00:32:20.018Z,98101.56
2022-11-17T00:34:49.500Z,98109.25
2022-11-17T00:37:18.939Z,98096.13
2022-11-17T00:39:47.527Z,98096.59
2022-11-17T00:42:17.027Z,98091.84
2022-11-17T00:44:46.572Z,98085.00
2022-11-17T00:47:16.030Z,98093.06
2022-11-17T00:49:45.476Z,98094.38
2022-11-17T00:52:14.883Z,98096.97
2022-11-17T00:54:44.477Z,98098.03
2022-11-17T00:57:13.969Z,98089.50
2022-11-17T00:59:43.395Z,98097.69
2022-11-17T01:02:12.861Z,98098.41
2022-11-17T01:04:42.299Z,98083.34
2022-11-17T01:07:11.912Z,98083.59
2022-11-17T01:09:41.369Z,98089.84
2022-11-17T01:12:10.833Z,98082.94
2022-11-17T01:14:40.351Z,98080.06
2022-11-17T01:17:09.853Z,98073.13
2022-11-17T01:19:39.419Z,98070.47
2022-11-17T01:22:08.889Z,98072.59
2022-11-17T01:24:38.346Z,98076.91
2022-11-17T01:27:08.320Z,98082.34
2022-11-17T01:29:36.904Z,98075.56
2022-11-17T01:32:06.360Z,98067.53
2022-11-17T01:34:35.847Z,98056.94
2022-11-17T01:37:20.430Z,98049.78
2022-11-17T01:39:50.956Z,98049.91
2022-11-17T01:42:27.616Z,98042.63
2022-11-17T01:45:19.595Z,98050.16
2022-11-17T01:47:57.798Z,98046.09
2022-11-17T01:50:31.155Z,98041.97
2022-11-17T01:53:07.105Z,98042.47
2022-11-17T01:56:00.076Z,98036.38
2022-11-17T01:58:39.828Z,98042.56
2022-11-17T02:01:09.389Z,98040.53
2022-11-17T02:03:40.636Z,98039.06
2022-11-17T02:06:30.045Z,98046.50
2022-11-17T02:09:03.098Z,98057.69
2022-11-17T02:11:36.259Z,98059.59
2022-11-17T02:14:06.160Z,98059.94
2022-11-17T02:16:35.590Z,98056.91
2022-11-17T02:19:05.507Z,98056.44
2022-11-17T02:22:21.292Z,98062.25
2022-11-17T02:25:36.146Z,98068.94
2022-11-17T02:28:37.741Z,98073.56
2022-11-17T02:31:37.884Z,98077.97
2022-11-17T02:34:30.121Z,98083.44
2022-11-17T02:37:10.386Z,98071.41
2022-11-17T02:39:54.496Z,98069.53
2022-11-17T02:43:10.402Z,98056.06
2022-11-17T02:46:01.171Z,98053.66
2022-11-17T02:48:59.819Z,98053.50
2022-11-17T02:51:29.531Z,98058.00
2022-11-17T02:54:00.261Z,98059.75
2022-11-17T02:56:29.645Z,98049.31
2022-11-17T02:59:03.258Z,98050.88
2022-11-17T03:01:53.097Z,98047.56
2022-11-17T03:04:40.506Z,98041.88
2022-11-17T03:08:06.065Z,98045.13
2022-11-17T03:11:08.563Z,98046.22
2022-11-17T03:13:59.251Z,98053.50
2022-11-17T03:16:38.863Z,98052.56
2022-11-17T03:19:18.984Z,98044.88
2022-11-17T03:21:56.818Z,98035.53
2022-11-17T03:24:46.184Z,98023.97
2022-11-17T03:27:35.865Z,98019.69
2022-11-17T03:30:09.576Z,98022.50
2022-11-17T03:32:44.306Z,98025.44
2022-11-17T03:35:21.167Z,98032.97
2022-11-17T03:38:01.593Z,98039.28
2022-11-17T03:40:35.514Z,98035.38
2022-11-17T03:43:08.819Z,98027.00
2022-11-17T03:45:51.530Z,98029.78
2022-11-17T03:48:45.100Z,98037.09
2022-11-17T03:51:24.462Z,98027.38
2022-11-17T03:53:55.264Z,98041.47
2022-11-17T03:57:23.727Z,98040.72
2022-11-17T04:00:00.684Z,98028.31
2022-11-17T04:02:30.228Z,98023.47
2022-11-17T04:05:08.724Z,98026.88
2022-11-17T04:07:47.587Z,98035.56
2022-11-17T04:10:25.858Z,98034.78
2022-11-17T04:13:13.900Z,98041.72
2022-11-17T04:15:59.078Z,98052.06
2022-11-17T04:18:28.697Z,98051.59
2022-11-17T04:20:58.432Z,98049.13
2022-11-17T04:23:28.309Z,98045.72
2022-11-17T04:26:16.815Z,98057.00
2022-11-17T04:28:50.468Z,98058.38
2022-11-17T04:31:25.441Z,98062.41
2022-11-17T04:34:04.453Z,98066.06
2022-11-17T04:36:45.757Z,98054.69
2022-11-17T04:39:16.783Z,98062.38
2022-11-17T04:41:57.362Z,98063.63
2022-11-17T04:44:31.190Z,98057.53
2022-11-17T04:47:03.394Z,98051.34
2022-11-17T04:49:33.541Z,98061.22
2022-11-17T04:52:03.445Z,98066.53
2022-11-17T04:54:33.083Z,98051.00
2022-11-17T04:57:02.947Z,98080.28
2022-11-17T04:59:32.241Z,98074.44
2022-11-17T05:02:05.941Z,98073.38
2022-11-17T05:04:54.461Z,98073.84
2022-11-17T05:07:24.487Z,98066.56
2022-11-17T05:09:53.980Z,98062.88
2022-11-17T05:12:41.943Z,98060.47
2022-11-17T05:15:11.518Z,98075.53
2022-11-17T05:17:40.135Z,98079.69
2022-11-17T05:20:10.591Z,98080.66
2022-11-17T05:23:02.490Z,98082.94
2022-11-17T05:25:34.914Z,98084.25
2022-11-17T05:28:04.451Z,98070.16
2022-11-17T05:30:33.857Z,98086.00
2022-11-17T05:33:03.360Z,98091.84
2022-11-17T05:35:32.892Z,98089.47
2022-11-17T05:38:02.359Z,98098.09
2022-11-17T05:40:31.879Z,98095.72
2022-11-17T05:43:01.331Z,98102.47
2022-11-17T05:45:30.828Z,98095.94
2022-11-17T05:48:00.381Z,98106.84
2022-11-17T05:50:29.833Z,98117.06
2022-11-17T05:52:59.364Z,98119.47
2022-11-17T05:55:28.909Z,98107.94
2022-11-17T05:58:27.548Z,98117.97
2022-11-17T06:00:59.082Z,98113.47
2022-11-17T06:03:38.261Z,98118.06
2022-11-17T06:06:09.714Z,98116.59
2022-11-17T06:08:39.368Z,98115.38
2022-11-17T06:11:09.067Z,98113.00
2022-11-17T06:13:38.784Z,98113.38
2022-11-17T06:16:12.229Z,98115.16
2022-11-17T06:18:51.744Z,98114.44
2022-11-17T06:21:20.443Z,98120.88
2022-11-17T06:23:51.207Z,98116.38
2022-11-17T06:26:20.288Z,98114.44
2022-11-17T06:28:51.969Z,98117.00
2022-11-17T06:31:20.803Z,98118.59
2022-11-17T06:33:50.367Z,98115.00
2022-11-17T06:36:20.182Z,98129.09
2022-11-17T06:38:49.029Z,98131.25
2022-11-17T06:41:18.497Z,98134.16
2022-11-17T06:43:48.023Z,98133.03
2022-11-17T06:46:17.644Z,98128.53
2022-11-17T06:48:47.241Z,98139.34
2022-11-17T06:51:16.815Z,98144.69
2022-11-17T06:53:46.371Z,98141.78
2022-11-17T06:56:17.694Z,98134.28
2022-11-17T06:58:47.179Z,98134.63
2022-11-17T07:01:16.823Z,98136.88
2022-11-17T07:03:46.186Z,98135.66
2022-11-17T07:06:16.415Z,98143.16
2022-11-17T07:08:46.361Z,98144.25
2022-11-17T07:11:17.300Z,98144.16
2022-11-17T07:13:47.284Z,98148.41
2022-11-17T07:16:23.762Z,98150.91
2022-11-17T07:18:53.924Z,98155.84
2022-11-17T07:21:23.411Z,98158.81
2022-11-17T07:23:52.923Z,98163.06
2022-11-17T07:26:22.428Z,98169.91
2022-11-17T07:28:51.941Z,98166.97
2022-11-17T07:31:22.109Z,98170.38
2022-11-17T07:33:53.870Z,98167.25
2022-11-17T07:36:23.380Z,98162.34
2022-11-17T07:38:52.967Z,98168.44
2022-11-17T07:41:22.525Z,98165.56
2022-11-17T07:43:52.039Z,98170.28
2022-11-17T07:46:21.561Z,98162.63
2022-11-17T07:48:55.228Z,98157.16
2022-11-17T07:51:25.109Z,98160.59
2022-11-17T07:53:54.902Z,98160.34
2022-11-17T07:56:24.354Z,98149.22
2022-11-17T07:58:54.984Z,98156.03
2022-11-17T08:01:27.620Z,98148.94
2022-11-17T08:03:58.118Z,98155.75
2022-11-17T08:06:27.653Z,98146.19
2022-11-17T08:08:57.159Z,98155.06
2022-11-17T08:11:26.654Z,98164.84
2022-11-17T08:13:57.242Z,98162.38
2022-11-17T08:16:30.849Z,98164.34
2022-11-17T08:19:00.543Z,98172.84
2022-11-17T08:21:30.341Z,98169.69
2022-11-17T08:24:00.391Z,98166.75
2022-11-17T08:26:29.998Z,98166.50
2022-11-17T08:29:01.877Z,98171.31
2022-11-17T08:31:30.821Z,98173.34
2022-11-17T08:34:00.401Z,98183.94
2022-11-17T08:36:29.948Z,98185.75
2022-11-17T08:38:59.542Z,98197.94
2022-11-17T08:41:29.129Z,98198.16
2022-11-17T08:43:58.765Z,98201.66
2022-11-17T08:46:28.233Z,98209.63
2022-11-17T08:48:57.767Z,98211.19
2022-11-17T08:51:27.342Z,98214.53
2022-11-17T08:53:59.097Z,98223.59
2022-11-17T08:56:28.585Z,98219.44
2022-11-17T08:58:57.333Z,98225.81
2022-11-17T09:01:27.433Z,98223.78
2022-11-17T09:03:56.297Z,98228.53
2022-11-17T09:06:25.744Z,98233.41
2022-11-17T09:08:56.571Z,98233.91
2022-11-17T09:11:26.225Z,98239.41
2022-11-17T09:13:55.664Z,98243.56
2022-11-17T09:16:25.610Z,98246.97
2022-11-17T09:18:58.591Z,98234.09
2022-11-17T09:21:27.665Z,98229.38
2022-11-17T09:23:56.411Z,98231.38
2022-11-17T09:26:27.328Z,98227.38
2022-11-17T09:29:00.462Z,98234.81
2022-11-17T09:31:30.868Z,98233.66
2022-11-17T09:34:04.808Z,98231.28
2022-11-17T09:36:35.169Z,98218.13
2022-11-17T09:39:04.541Z,98215.47
2022-11-17T09:41:46.469Z,98214.53
2022-11-17T09:44:39.718Z,98212.50
2022-11-17T09:47:36.055Z,98215.00
2022-11-17T09:50:32.659Z,98216.25
2022-11-17T09:53:30.310Z,98220.47
2022-11-17T09:56:08.610Z,98220.09
2022-11-17T09:59:06.700Z,98223.78
2022-11-17T10:01:35.394Z,98231.75
2022-11-17T10:04:09.544Z,98221.41
2022-11-17T10:06:38.922Z,98216.19
2022-11-17T10:09:36.231Z,98218.53
2022-11-17T10:12:27.105Z,98212.78
2022-11-17T10:14:56.369Z,98213.13
2022-11-17T10:17:25.777Z,98209.69
2022-11-17T10:19:54.516Z,98212.50
2022-11-17T10:22:45.028Z,98200.72
2022-11-17T10:25:49.065Z,98207.75
2022-11-17T10:28:44.122Z,98201.50
2022-11-17T10:31:20.344Z,98202.31
2022-11-17T10:33:51.579Z,98200.06
2022-11-17T10:36:29.708Z,98198.00
2022-11-17T10:39:00.695Z,98192.78
2022-11-17T10:41:45.512Z,98199.50
2022-11-17T10:44:28.277Z,98206.03
2022-11-17T10:47:04.383Z,98219.84
2022-11-17T10:49:38.147Z,98218.88
2022-11-17T10:52:18.570Z,98218.06
2022-11-17T10:54:47.816Z,98219.00
2022-11-17T10:57:26.789Z,98213.63
2022-11-17T10:59:57.942Z,98208.72
2022-11-17T11:02:30.796Z,98215.34
2022-11-17T11:05:18.730Z,98222.56
2022-11-17T11:07:48.476Z,98220.63
2022-11-17T11:10:43.840Z,98218.38
2022-11-17T11:13:24.982Z,98218.31
2022-11-17T11:15:53.761Z,98218.41
2022-11-17T11:18:23.342Z,98218.00
2022-11-17T11:21:07.343Z,98219.44
2022-11-17T11:23:51.242Z,98220.81
2022-11-17T11:27:11.217Z,98227.28
2022-11-17T11:30:06.202Z,98222.84
2022-11-17T11:33:36.044Z,98226.16
2022-11-17T11:36:24.396Z,98226.38
2022-11-17T11:39:20.512Z,98218.84
2022-11-17T11:42:37.206Z,98216.19
2022-11-17T11:45:42.808Z,98207.69
2022-11-17T11:48:28.263Z,98213.88
2022-11-17T11:51:23.261Z,98220.78
2022-11-17T11:54:16.389Z,98219.22
2022-11-17T11:56:48.842Z,98222.78
2022-11-17T11:59:49.395Z,98223.63
2022-11-17T12:02:48.856Z,98229.78
2022-11-17T12:06:27.583Z,98230.91
2022-11-17T12:09:40.591Z,98240.09
2022-11-17T12:12:22.745Z,98228.94
2022-11-17T12:15:18.441Z,98225.69
2022-11-17T12:18:02.713Z,98220.78
2022-11-17T12:20:47.923Z,98229.00
2022-11-17T12:24:18.397Z,98224.41
2022-11-17T12:26:47.054Z,98234.59
2022-11-17T12:29:21.336Z,98235.31
2022-11-17T12:32:02.086Z,98235.91
2022-11-17T12:34:34.026Z,98230.25
2022-11-17T12:37:26.656Z,98233.78
2022-11-17T12:40:08.063Z,98225.97
2022-11-17T12:42:38.335Z,98226.28
2022-11-17T12:45:14.136Z,98238.47
2022-11-17T12:47:54.822Z,98237.28
2022-11-17T12:51:15.907Z,98228.75
2022-11-17T12:54:24.399Z,98224.63
2022-11-17T12:57:06.718Z,98228.00
2022-11-17T13:00:05.606Z,98238.84
2022-11-17T13:03:03.102Z,98244.56
2022-11-17T13:05:31.890Z,98250.06
2022-11-17T13:08:21.707Z,98253.16
2022-11-17T13:10:51.781Z,98250.56
2022-11-17T13:13:25.340Z,98256.31
2022-11-17T13:16:02.349Z,98247.53
2022-11-17T13:18:36.770Z,98256.59
2022-11-17T13:21:25.188Z,98248.25
2022-11-17T13:23:54.466Z,98256.84
2022-11-17T13:26:26.679Z,98256.31
2022-11-17T13:29:18.839Z,98263.25
2022-11-17T13:31:47.542Z,98258.34
2022-11-17T13:34:21.477Z,98250.13
2022-11-17T13:37:01.369Z,98250.59
2022-11-17T13:39:31.064Z,98257.41
2022-11-17T13:42:03.336Z,98258.72
2022-11-17T13:44:33.584Z,98253.63
2022-11-17T13:47:38.074Z,98255.44
2022-11-17T13:50:29.443Z,98270.13
2022-11-17T13:53:26.896Z,98279.16
2022-11-17T13:55:55.925Z,98293.59
2022-11-17T13:58:37.488Z,98293.19
2022-11-17T14:01:06.416Z,98283.59
2022-11-17T14:03:43.944Z,98287.56
2022-11-17T14:06:14.792Z,98284.72
2022-11-17T14:09:04.713Z,98285.16
2022-11-17T14:11:33.457Z,98289.44
2022-11-17T14:14:02.206Z,98291.41
2022-11-17T14:16:41.478Z,98288.13
2022-11-17T14:19:16.198Z,98297.09
2022-11-17T14:22:31.033Z,98290.19
2022-11-17T14:25:00.526Z,98293.00
2022-11-17T14:27:29.959Z,98287.69
2022-11-17T14:29:58.699Z,98291.06
2022-11-17T14:32:29.093Z,98293.75
2022-11-17T14:34:59.083Z,98287.78
2022-11-17T14:37:29.090Z,98286.72
2022-11-17T14:40:00.820Z,98290.19
2022-11-17T14:42:34.766Z,98289.69
2022-11-17T14:45:05.573Z,98289.59
2022-11-17T14:47:35.901Z,98291.38
2022-11-17T14:50:05.112Z,98274.97
2022-11-17T14:52:34.594Z,98285.84
2022-11-17T14:55:04.782Z,98290.81
2022-11-17T14:57:34.401Z,98287.25
2022-11-17T15:00:08.604Z,98278.72
2022-11-17T15:02:38.162Z,98284.06
2022-11-17T15:05:07.475Z,98288.66
2022-11-17T15:07:36.417Z,98285.22
2022-11-17T15:10:08.010Z,98290.59
2022-11-17T15:12:36.953Z,98290.25
2022-11-17T15:15:08.789Z,98287.22
2022-11-17T15:17:38.520Z,98281.09
2022-11-17T15:20:09.815Z,98280.47
2022-11-17T15:22:38.416Z,98281.38
2022-11-17T15:25:09.017Z,98269.47
2022-11-17T15:27:38.609Z,98272.63
2022-11-17T15:30:09.231Z,98280.88
2022-11-17T15:32:38.657Z,98280.63
2022-11-17T15:35:08.738Z,98272.50
2022-11-17T15:37:38.240Z,98262.75
2022-11-17T15:40:08.124Z,98259.22
2022-11-17T15:42:36.817Z,98258.44
2022-11-17T15:45:06.117Z,98269.25
2022-11-17T15:47:35.576Z,98261.56
2022-11-17T15:50:05.760Z,98259.47
2022-11-17T15:53:02.085Z,98271.88
2022-11-17T15:55:23.967Z,98267.47
2022-11-17T15:57:55.181Z,98273.47
2022-11-17T16:00:24.695Z,98271.88
2022-11-17T16:02:57.327Z,98269.13
2022-11-17T16:05:26.709Z,98265.09
2022-11-17T16:07:56.295Z,98266.28
2022-11-17T16:10:27.512Z,98270.06
2022-11-17T16:12:57.611Z,98273.84
2022-11-17T16:15:27.340Z,98283.28
2022-11-17T16:17:56.917Z,98276.97
2022-11-17T16:20:26.659Z,98276.88
2022-11-17T16:22:58.887Z,98276.28
2022-11-17T16:25:28.511Z,98285.81
2022-11-17T16:27:56.400Z,98281.03
2022-11-17T16:30:32.743Z,98285.44
2022-11-17T16:33:08.820Z,98279.31
2022-11-17T16:35:40.605Z,98277.78
2022-11-17T16:38:17.200Z,98274.94
2022-11-17T16:40:46.758Z,98282.66
2022-11-17T16:43:16.414Z,98282.78
2022-11-17T16:45:46.720Z,98287.34
2022-11-17T16:48:15.522Z,98295.50
2022-11-17T16:50:45.193Z,98296.84
2022-11-17T16:53:14.287Z,98287.63
2022-11-17T16:55:43.964Z,98281.03
2022-11-17T16:58:14.580Z,98269.16
2022-11-17T17:00:44.177Z,98257.09
2022-11-17T17:03:13.830Z,98277.38
2022-11-17T17:05:43.416Z,98293.38
2022-11-17T17:08:13.024Z,98295.31
2022-11-17T17:10:42.980Z,98305.38
2022-11-17T17:13:10.795Z,98310.44
2022-11-17T17:15:38.608Z,98312.22
2022-11-17T17:18:09.553Z,98307.63
2022-11-17T17:20:39.125Z,98310.66
2022-11-17T17:23:09.521Z,98312.75
2022-11-17T17:25:39.154Z,98316.16
2022-11-17T17:28:08.819Z,98314.59
2022-11-17T17:30:38.428Z,98317.25
2022-11-17T17:33:07.977Z,98314.22
2022-11-17T17:35:35.778Z,98317.38
2022-11-17T17:38:05.221Z,98325.78
2022-11-17T17:40:34.888Z,98315.81
2022-11-17T17:43:04.401Z,98313.41
2022-11-17T17:45:33.075Z,98320.97
2022-11-17T17:48:02.558Z,98309.91
2022-11-17T17:50:32.811Z,98314.66
2022-11-17T17:53:02.329Z,98318.69
2022-11-17T17:55:32.602Z,98318.19
2022-11-17T17:58:02.079Z,98315.25
2022-11-17T18:00:31.573Z,98306.03
2022-11-17T18:03:01.572Z,98313.09
2022-11-17T18:05:32.443Z,98324.03
2022-11-17T18:08:01.942Z,98329.16
2022-11-17T18:10:31.411Z,98322.59
2022-11-17T18:13:00.907Z,98322.84
2022-11-17T18:15:30.640Z,98325.03
2022-11-17T18:17:59.403Z,98337.19
2022-11-17T18:20:29.161Z,98330.50
2022-11-17T18:22:59.883Z,98326.97
2022-11-17T18:25:29.402Z,98329.66
2022-11-17T18:27:59.065Z,98332.31
2022-11-17T18:30:28.568Z,98335.50
2022-11-17T18:33:02.792Z,98331.13
2022-11-17T18:35:32.720Z,98325.38
2022-11-17T18:38:02.281Z,98325.78
2022-11-17T18:40:31.379Z,98296.41
2022-11-17T18:43:01.805Z,98312.25
2022-11-17T18:45:30.390Z,98307.72
2022-11-17T18:47:59.996Z,98306.16
2022-11-17T18:50:28.904Z,98310.41
2022-11-17T18:52:58.772Z,98308.47
2022-11-17T18:55:28.330Z,98308.69
2022-11-17T18:57:58.070Z,98299.06
2022-11-17T19:00:27.492Z,98297.38
2022-11-17T19:02:57.008Z,98304.56
2022-11-17T19:05:26.517Z,98306.25
2022-11-17T19:07:57.416Z,98298.22
2022-11-17T19:10:27.036Z,98293.88
2022-11-17T19:12:55.652Z,98302.38
2022-11-17T19:15:24.323Z,98307.75
2022-11-17T19:17:53.881Z,98292.53
2022-11-17T19:20:25.145Z,98292.88
2022-11-17T19:22:55.270Z,98294.34
2022-11-17T19:25:24.703Z,98291.91
2022-11-17T19:27:54.326Z,98291.53
2022-11-17T19:30:23.072Z,98286.28
2022-11-17T19:32:52.606Z,98294.09
2022-11-17T19:35:22.929Z,98294.34
2022-11-17T19:37:52.612Z,98294.47
2022-11-17T19:40:22.169Z,98294.34
2022-11-17T19:42:51.626Z,98294.47
2022-11-17T19:45:21.204Z,98287.53
2022-11-17T19:47:50.690Z,98278.63
2022-11-17T19:50:20.292Z,98283.63
2022-11-17T19:52:50.491Z,98295.81
2022-11-17T19:55:20.144Z,98282.66
2022-11-17T19:57:49.274Z,98278.91
2022-11-17T20:00:19.628Z,98282.19
2022-11-17T20:02:48.289Z,98273.25
2022-11-17T20:05:18.025Z,98277.78
2022-11-17T20:07:46.771Z,98280.44
2022-11-17T20:10:17.320Z,98283.06
2022-11-17T20:12:46.917Z,98287.25
2022-11-17T20:15:33.226Z,98293.56
2022-11-17T20:18:03.728Z,98285.91
2022-11-17T20:20:33.260Z,98280.91
2022-11-17T20:23:02.733Z,98276.78
2022-11-17T20:25:32.664Z,98275.94
2022-11-17T20:28:02.367Z,98273.00
2022-11-17T20:30:33.035Z,98274.59
2022-11-17T20:33:02.649Z,98294.66
2022-11-17T20:35:37.238Z,98300.03
2022-11-17T20:38:10.506Z,98291.66
2022-11-17T20:40:42.630Z,98288.47
2022-11-17T20:43:13.121Z,98278.03
2022-11-17T20:45:42.663Z,98262.66
2022-11-17T20:48:10.436Z,98251.84
2022-11-17T20:50:38.607Z,98265.44
2022-11-17T20:53:08.475Z,98268.50
2022-11-17T20:55:38.703Z,98256.09
2022-11-17T20:58:08.345Z,98217.63
2022-11-17T21:00:37.914Z,98211.44
2022-11-17T21:03:08.471Z,98233.44
2022-11-17T21:05:37.975Z,98262.63
2022-11-17T21:08:06.965Z,98265.94
2022-11-17T21:10:37.189Z,98275.44
2022-11-17T21:13:05.865Z,98276.88
2022-11-17T21:15:37.619Z,98278.59
2022-11-17T21:18:25.360Z,98281.38
2022-11-17T21:21:00.560Z,98283.31
2022-11-17T21:23:30.590Z,98285.53
2022-11-17T21:26:07.186Z,98279.06
2022-11-17T21:28:39.966Z,98263.75
2022-11-17T21:31:23.952Z,98260.22
2022-11-17T21:34:03.571Z,98258.28
2022-11-17T21:36:35.680Z,98263.16
2022-11-17T21:39:05.688Z,98258.78
2022-11-17T21:41:35.639Z,98268.84
2022-11-17T21:44:05.882Z,98266.31
2022-11-17T21:46:36.528Z,98244.41
2022-11-17T21:49:06.313Z,98271.00
2022-11-17T21:51:38.758Z,98271.13
2022-11-17T21:54:10.438Z,98276.75
2022-11-17T21:56:40.382Z,98259.63
2022-11-17T21:59:14.478Z,98262.91
2022-11-17T22:01:43.736Z,98261.91
2022-11-17T22:04:13.355Z,98269.34
2022-11-17T22:06:42.366Z,98288.91
2022-11-17T22:09:12.402Z,98292.56
2022-11-17T22:11:41.186Z,98300.47
2022-11-17T22:14:18.369Z,98302.31
2022-11-17T22:16:52.160Z,98294.53
2022-11-17T22:19:27.479Z,98301.56
2022-11-17T22:21:56.481Z,98288.41
2022-11-17T22:24:25.242Z,98281.31
2022-11-17T22:26:54.136Z,98275.75
2022-11-17T22:29:23.728Z,98262.69
2022-11-17T22:31:52.376Z,98262.72
2022-11-17T22:34:21.908Z,98272.81
2022-11-17T22:36:50.605Z,98280.84
2022-11-17T22:39:19.670Z,98270.09
2022-11-17T22:41:48.575Z,98268.06
2022-11-17T22:44:18.282Z,98258.31
2022-11-17T22:46:46.966Z,98262.47
2022-11-17T22:49:16.648Z,98266.66
2022-11-17T22:52:03.436Z,98255.28
2022-11-17T22:54:32.564Z,98244.28
2022-11-17T22:57:02.685Z,98231.78
2022-11-17T22:59:31.765Z,98236.72
2022-11-17T23:02:01.359Z,98242.91
2022-11-17T23:04:31.182Z,98239.44
2022-11-17T23:07:00.748Z,98236.75
2022-11-17T23:09:30.552Z,98237.50
2022-11-17T23:12:00.072Z,98228.81
2022-11-17T23:14:29.626Z,98232.78
2022-11-17T23:16:59.138Z,98232.16
2022-11-17T23:19:28.598Z,98221.06
2022-11-17T23:21:58.049Z,98219.72
2022-11-17T23:24:27.526Z,98196.34
2022-11-17T23:26:56.955Z,98212.88
2022-11-17T23:29:26.416Z,98215.38
2022-11-17T23:31:55.930Z,98219.63
2022-11-17T23:34:25.502Z,98219.72
2022-11-17T23:36:59.484Z,98211.53
2022-11-17T23:39:32.023Z,98204.19
2022-11-17T23:42:01.532Z,98220.59
2022-11-17T23:44:30.432Z,98221.75
2022-11-17T23:47:00.017Z,98222.91
2022-11-17T23:49:29.919Z,98216.91
2022-11-17T23:51:58.515Z,98220.75
2022-11-17T23:54:27.171Z,98223.88
2022-11-17T23:56:57.580Z,98220.69
2022-11-17T23:59:26.253Z,98208.09
